Terminal Aerodrome Forecast
Issued by NWS

Home | Current Version | Previous Version | Text Only | Print | Product List | Glossary On
Versions: 1 2 3 4 5 6 7 8 9 10 11 12 13 14 15 16 17
000
FTUS42 KFFC 192300
TAFFTY
TAF
KFTY 192320Z 2000/2024 09006KT P6SM SCT045
     FM200900 08005KT P6SM BKN015
     FM201500 09008KT P6SM SCT035
     FM201900 10009G15KT P6SM SCT060=

USA.gov is the U.S. government's official web portal to all federal, state and local government web resources and services.